Terminal Aerodrome Forecast
Issued by NWS Paducah, KY

Home | Current Version | Previous Version | Graphics & Text | Print | Product List | Glossary On
Versions: 1 2 3 4 5 6 7 8 9 10 11 12 13 14 15 16 17
000
FTUS43 KPAH 251446 AAA
TAFEVV
TAF AMD
KEVV 251446Z 2515/2612 21005KT P6SM SCT016 BKN250
      TEMPO 2515/2518 BKN025
     FM251800 22005KT P6SM BKN030
     FM260200 00000KT P6SM VCSH BKN030 BKN080=

USA.gov is the U.S. government's official web portal to all federal, state and local government web resources and services.